createdAt,value
2018-08-04T00:01:51.949Z,23.21
2018-08-04T00:06:51.396Z,23.17
2018-08-04T00:11:51.686Z,23.15
2018-08-04T00:16:51.869Z,23.20
2018-08-04T00:21:51.374Z,22.89
2018-08-04T00:26:51.912Z,23.00
2018-08-04T00:31:51.199Z,23.00
2018-08-04T00:36:51.707Z,23.29
2018-08-04T00:41:51.852Z,23.27
2018-08-04T00:46:52.149Z,23.25
2018-08-04T00:51:52.065Z,23.26
2018-08-04T00:56:51.260Z,23.32
2018-08-04T01:01:51.536Z,23.35
2018-08-04T01:06:52.064Z,23.38
2018-08-04T01:11:51.258Z,23.36
2018-08-04T01:16:51.562Z,23.18
2018-08-04T01:21:52.061Z,23.05
2018-08-04T01:26:51.628Z,22.99
2018-08-04T01:31:51.929Z,22.98
2018-08-04T01:36:51.518Z,22.96
2018-08-04T01:41:51.634Z,22.93
2018-08-04T01:46:52.327Z,22.67
2018-08-04T01:51:51.466Z,22.75
2018-08-04T01:56:52.035Z,22.70
2018-08-04T02:01:51.305Z,22.28
2018-08-04T02:06:51.810Z,22.55
2018-08-04T02:11:52.013Z,22.49
2018-08-04T02:16:51.361Z,22.47
2018-08-04T02:21:51.785Z,22.37
2018-08-04T02:26:51.350Z,22.16
2018-08-04T02:31:51.663Z,22.28
2018-08-04T02:36:52.153Z,21.89
2018-08-04T02:41:51.742Z,22.31
2018-08-04T02:46:51.655Z,21.61
2018-08-04T02:51:52.121Z,21.45
2018-08-04T02:56:51.713Z,21.24
2018-08-04T03:01:51.980Z,21.43
2018-08-04T03:06:51.510Z,21.28
2018-08-04T03:11:51.711Z,21.58
2018-08-04T03:16:52.001Z,21.40
2018-08-04T03:21:51.521Z,20.98
2018-08-04T03:26:52.042Z,21.33
2018-08-04T03:31:51.409Z,21.40
2018-08-04T03:36:51.823Z,21.02
2018-08-04T03:41:52.079Z,20.75
2018-08-04T03:46:51.296Z,20.62
2018-08-04T03:51:51.798Z,20.62
2018-08-04T03:56:51.385Z,20.71
2018-08-04T04:01:51.676Z,20.70
2018-08-04T04:06:52.228Z,20.85
2018-08-04T04:11:51.411Z,20.58
2018-08-04T04:16:51.706Z,20.77
2018-08-04T04:21:52.275Z,21.10
2018-08-04T04:26:51.736Z,20.67
2018-08-04T04:31:52.054Z,20.84
2018-08-04T04:36:51.646Z,20.83
2018-08-04T04:41:51.704Z,21.44
2018-08-04T04:46:52.004Z,21.11
2018-08-04T04:51:52.915Z,20.85
2018-08-04T04:56:52.169Z,20.90
2018-08-04T05:01:51.484Z,20.87
2018-08-04T05:06:51.916Z,20.94
2018-08-04T05:11:51.681Z,20.93
2018-08-04T05:16:51.974Z,21.04
2018-08-04T05:21:51.525Z,21.29
2018-08-04T05:26:52.022Z,21.18
2018-08-04T05:31:51.350Z,21.08
2018-08-04T05:36:51.812Z,21.02
2018-08-04T05:41:52.019Z,21.27
2018-08-04T05:46:52.658Z,21.38
2018-08-04T05:51:51.806Z,21.45
2018-08-04T05:56:51.307Z,21.53
2018-08-04T06:01:51.618Z,21.60
2018-08-04T06:06:52.120Z,21.65
2018-08-04T06:11:51.340Z,21.87
2018-08-04T06:16:51.625Z,21.91
2018-08-04T06:21:52.122Z,21.50
2018-08-04T06:26:51.672Z,21.64
2018-08-04T06:31:51.949Z,21.76
2018-08-04T06:36:51.473Z,21.70
2018-08-04T06:41:52.029Z,21.90
2018-08-04T06:46:51.905Z,21.92
2018-08-04T06:51:51.453Z,22.06
2018-08-04T06:56:51.968Z,22.22
2018-08-04T07:01:51.245Z,22.40
2018-08-04T07:06:51.783Z,22.27
2018-08-04T07:11:51.920Z,22.11
2018-08-04T07:16:51.226Z,22.17
2018-08-04T07:21:51.732Z,22.49
2018-08-04T07:26:51.253Z,22.16
2018-08-04T07:31:51.528Z,22.27
2018-08-04T07:36:52.442Z,22.02
2018-08-04T07:41:51.626Z,22.39
2018-08-04T07:46:51.502Z,22.53
2018-08-04T07:51:52.042Z,22.63
2018-08-04T07:56:51.551Z,22.18
2018-08-04T08:01:51.881Z,22.44
2018-08-04T08:06:51.418Z,22.62
2018-08-04T08:11:51.556Z,22.63
2018-08-04T08:16:51.858Z,22.61
2018-08-04T08:21:52.320Z,22.77
2018-08-04T08:26:51.888Z,22.88
2018-08-04T08:31:52.162Z,22.93
2018-08-04T08:36:51.716Z,22.96
2018-08-04T08:41:51.858Z,23.49
2018-08-04T08:46:52.119Z,23.41
2018-08-04T08:51:51.668Z,23.76
2018-08-04T08:56:52.198Z,23.85
2018-08-04T09:01:51.535Z,23.83
2018-08-04T09:06:52.043Z,24.13
2018-08-04T09:11:52.205Z,24.55
2018-08-04T09:16:51.523Z,24.42
2018-08-04T09:21:52.052Z,24.07
2018-08-04T09:26:51.532Z,23.39
2018-08-04T09:31:51.830Z,23.28
2018-08-04T09:36:52.289Z,23.28
2018-08-04T09:41:51.547Z,23.27
2018-08-04T09:46:51.817Z,22.90
2018-08-04T09:51:52.323Z,22.54
2018-08-04T09:56:51.896Z,23.37
2018-08-04T10:01:52.154Z,23.47
2018-08-04T10:06:51.696Z,23.59
2018-08-04T10:11:51.882Z,23.70
2018-08-04T10:16:52.161Z,24.09
2018-08-04T10:21:51.684Z,23.64
2018-08-04T10:26:51.239Z,24.26
2018-08-04T10:31:51.643Z,23.86
2018-08-04T10:36:52.032Z,23.93
2018-08-04T10:41:52.204Z,24.11
2018-08-04T10:46:51.474Z,23.81
2018-08-04T10:51:51.961Z,24.15
2018-08-04T10:56:51.519Z,24.48
2018-08-04T11:01:51.797Z,24.11
2018-08-04T11:06:52.323Z,23.97
2018-08-04T11:11:51.529Z,24.16
2018-08-04T11:16:51.825Z,24.28
2018-08-04T11:21:52.296Z,24.40
2018-08-04T11:26:51.905Z,24.46
2018-08-04T11:31:52.195Z,25.10
2018-08-04T11:36:53.311Z,24.61
2018-08-04T11:41:51.892Z,24.57
2018-08-04T11:46:52.163Z,24.54
2018-08-04T11:51:51.668Z,24.79
2018-08-04T11:56:52.181Z,23.99
2018-08-04T12:01:51.573Z,23.90
2018-08-04T12:06:52.003Z,24.53
2018-08-04T12:11:52.181Z,24.31
2018-08-04T12:16:51.478Z,24.31
2018-08-04T12:21:51.996Z,24.79
2018-08-04T12:26:51.497Z,24.25
2018-08-04T12:31:52.016Z,24.52
2018-08-04T12:36:52.341Z,24.49
2018-08-04T12:41:51.494Z,24.98
2018-08-04T12:46:51.793Z,25.36
2018-08-04T12:51:52.346Z,25.06
2018-08-04T12:56:51.898Z,24.97
2018-08-04T13:01:52.260Z,25.06
2018-08-04T13:06:51.746Z,24.38
2018-08-04T13:11:52.075Z,24.44
2018-08-04T13:16:52.250Z,24.41
2018-08-04T13:21:51.808Z,24.07
2018-08-04T13:26:51.261Z,23.89
2018-08-04T13:31:51.572Z,24.38
2018-08-04T13:36:52.268Z,24.13
2018-08-04T13:41:52.222Z,24.72
2018-08-04T13:46:51.524Z,24.87
2018-08-04T13:51:51.971Z,25.21
2018-08-04T13:56:51.543Z,25.18
2018-08-04T14:01:51.799Z,24.75
2018-08-04T14:06:52.401Z,25.37
2018-08-04T14:11:51.768Z,25.06
2018-08-04T14:16:51.817Z,25.05
2018-08-04T14:21:52.442Z,25.12
2018-08-04T14:26:51.897Z,24.78
2018-08-04T14:31:52.734Z,24.55
2018-08-04T14:36:51.630Z,24.81
2018-08-04T14:41:51.820Z,25.24
2018-08-04T14:46:52.082Z,25.14
2018-08-04T14:51:51.592Z,24.60
2018-08-04T14:56:52.142Z,24.44
2018-08-04T15:01:51.577Z,24.28
2018-08-04T15:06:52.039Z,24.33
2018-08-04T15:11:52.153Z,25.04
2018-08-04T15:16:51.464Z,24.96
2018-08-04T15:21:51.986Z,24.44
2018-08-04T15:26:51.472Z,24.15
2018-08-04T15:31:51.808Z,24.14
2018-08-04T15:36:52.407Z,24.52
2018-08-04T15:41:51.561Z,24.70
2018-08-04T15:46:51.824Z,24.46
2018-08-04T15:51:52.348Z,24.45
2018-08-04T15:56:51.851Z,24.33
2018-08-04T16:01:52.135Z,24.27
2018-08-04T16:06:51.692Z,24.45
2018-08-04T16:11:51.847Z,24.62
2018-08-04T16:16:52.542Z,24.22
2018-08-04T16:21:51.708Z,24.52
2018-08-04T16:26:52.199Z,24.40
2018-08-04T16:31:51.510Z,24.25
2018-08-04T16:36:52.042Z,24.35
2018-08-04T16:41:53.651Z,24.20
2018-08-04T16:46:51.505Z,23.77
2018-08-04T16:51:51.996Z,23.71
2018-08-04T16:56:51.559Z,23.95
2018-08-04T17:01:51.820Z,23.95
2018-08-04T17:06:52.409Z,23.49
2018-08-04T17:11:51.546Z,23.54
2018-08-04T17:16:51.859Z,23.54
2018-08-04T17:21:52.507Z,23.53
2018-08-04T17:26:51.929Z,23.41
2018-08-04T17:31:52.452Z,23.49
2018-08-04T17:36:51.704Z,23.34
2018-08-04T17:41:51.909Z,23.38
2018-08-04T17:46:52.176Z,23.55
2018-08-04T17:51:51.682Z,23.58
2018-08-04T17:56:52.386Z,23.58
2018-08-04T18:01:51.530Z,24.07
2018-08-04T18:06:52.064Z,23.97
2018-08-04T18:11:52.220Z,24.23
2018-08-04T18:16:51.536Z,24.42
2018-08-04T18:21:53.441Z,24.33
2018-08-04T18:26:51.599Z,24.16
2018-08-04T18:31:51.860Z,24.25
2018-08-04T18:36:52.774Z,24.22
2018-08-04T18:41:51.607Z,24.16
2018-08-04T18:46:51.884Z,24.16
2018-08-04T18:51:51.377Z,24.26
2018-08-04T18:56:51.985Z,24.18
2018-08-04T19:01:51.274Z,24.00
2018-08-04T19:06:51.804Z,24.15
2018-08-04T19:11:51.988Z,23.85
2018-08-04T19:16:51.291Z,23.90
2018-08-04T19:21:51.784Z,23.81
2018-08-04T19:26:51.358Z,23.95
2018-08-04T19:31:51.654Z,23.93
2018-08-04T19:36:52.164Z,23.74
2018-08-04T19:41:51.377Z,23.85
2018-08-04T19:46:51.667Z,23.92
2018-08-04T19:51:52.115Z,24.07
2018-08-04T19:56:51.763Z,24.00
2018-08-04T20:01:52.017Z,24.02
2018-08-04T20:06:51.500Z,24.10
2018-08-04T20:11:51.757Z,24.24
2018-08-04T20:16:52.016Z,24.18
2018-08-04T20:21:51.491Z,24.26
2018-08-04T20:26:52.077Z,24.37
2018-08-04T20:31:51.420Z,24.61
2018-08-04T20:36:51.858Z,24.66
2018-08-04T20:41:52.079Z,24.60
2018-08-04T20:46:51.746Z,24.72
2018-08-04T20:51:51.839Z,24.54
2018-08-04T20:56:51.503Z,24.62
2018-08-04T21:01:51.741Z,24.57
2018-08-04T21:06:52.235Z,24.65
2018-08-04T21:11:52.072Z,24.77
2018-08-04T21:16:51.732Z,24.57
2018-08-04T21:21:52.212Z,24.59
2018-08-04T21:26:52.339Z,24.56
2018-08-04T21:31:52.089Z,24.65
2018-08-04T21:36:51.639Z,24.56
2018-08-04T21:41:51.806Z,24.29
2018-08-04T21:46:52.077Z,24.35
2018-08-04T21:51:51.594Z,24.27
2018-08-04T21:56:52.328Z,24.09
2018-08-04T22:01:52.026Z,23.91
2018-08-04T22:06:51.955Z,23.95
2018-08-04T22:11:52.278Z,23.98
2018-08-04T22:16:51.481Z,23.98
2018-08-04T22:21:51.917Z,23.96
2018-08-04T22:26:51.561Z,23.81
2018-08-04T22:31:51.804Z,23.56
2018-08-04T22:36:52.247Z,23.44
2018-08-04T22:41:51.506Z,23.28
2018-08-04T22:46:51.783Z,23.35
2018-08-04T22:51:52.203Z,23.41
2018-08-04T22:56:51.869Z,23.40
2018-08-04T23:01:52.476Z,23.45
2018-08-04T23:06:52.505Z,23.32
2018-08-04T23:11:51.884Z,23.26
2018-08-04T23:16:52.194Z,23.47
2018-08-04T23:21:51.628Z,23.35
2018-08-04T23:26:52.239Z,23.56
2018-08-04T23:31:51.472Z,23.45
2018-08-04T23:36:51.948Z,23.25
2018-08-04T23:41:52.195Z,23.22
2018-08-04T23:46:51.553Z,23.35
2018-08-04T23:51:51.949Z,23.09
2018-08-04T23:56:51.583Z,23.36
